createdAt,value
2018-10-06T00:01:19.505Z,13.40
2018-10-06T00:03:47.984Z,13.40
2018-10-06T00:06:18.275Z,13.40
2018-10-06T00:08:46.916Z,13.40
2018-10-06T00:11:15.642Z,13.30
2018-10-06T00:13:44.197Z,13.30
2018-10-06T00:16:12.622Z,13.30
2018-10-06T00:18:41.142Z,13.20
2018-10-06T00:21:09.653Z,13.20
2018-10-06T00:23:38.231Z,13.20
2018-10-06T00:26:06.733Z,13.20
2018-10-06T00:28:35.152Z,13.20
2018-10-06T00:31:03.626Z,13.20
2018-10-06T00:33:32.101Z,13.10
2018-10-06T00:36:00.736Z,13.10
2018-10-06T00:38:29.277Z,13.10
2018-10-06T00:40:57.745Z,13.10
2018-10-06T00:43:26.213Z,13.10
2018-10-06T00:45:54.886Z,13.10
2018-10-06T00:48:23.366Z,13.00
2018-10-06T00:50:51.873Z,13.00
2018-10-06T00:53:20.481Z,13.00
2018-10-06T00:55:48.944Z,13.00
2018-10-06T00:58:17.418Z,13.00
2018-10-06T01:00:46.326Z,13.00
2018-10-06T01:03:14.792Z,12.90
2018-10-06T01:05:43.306Z,12.90
2018-10-06T01:08:11.958Z,12.90
2018-10-06T01:10:40.554Z,12.90
2018-10-06T01:13:09.045Z,12.90
2018-10-06T01:15:37.520Z,12.90
2018-10-06T01:18:06.087Z,12.80
2018-10-06T01:20:34.557Z,12.80
2018-10-06T01:23:03.046Z,12.80
2018-10-06T01:25:31.505Z,12.80
2018-10-06T01:28:00.121Z,12.70
2018-10-06T01:30:28.628Z,12.70
2018-10-06T01:32:57.226Z,12.70
2018-10-06T01:35:25.691Z,12.70
2018-10-06T01:37:54.352Z,12.70
2018-10-06T01:40:22.879Z,12.70
2018-10-06T01:42:51.376Z,12.60
2018-10-06T01:45:20.149Z,12.60
2018-10-06T01:47:49.180Z,12.60
2018-10-06T01:50:17.795Z,12.60
2018-10-06T01:52:46.387Z,12.70
2018-10-06T01:55:15.068Z,12.70
2018-10-06T01:57:43.629Z,12.60
2018-10-06T02:00:12.097Z,12.50
2018-10-06T02:02:40.544Z,12.50
2018-10-06T02:05:09.065Z,12.50
2018-10-06T02:07:37.605Z,12.50
2018-10-06T02:10:06.184Z,12.50
2018-10-06T02:12:34.710Z,12.50
2018-10-06T02:15:03.118Z,12.50
2018-10-06T02:17:31.604Z,12.50
2018-10-06T02:20:00.127Z,12.50
2018-10-06T02:22:28.679Z,12.50
2018-10-06T02:24:57.239Z,12.50
2018-10-06T02:27:25.672Z,12.40
2018-10-06T02:29:54.200Z,12.40
2018-10-06T02:32:22.733Z,12.40
2018-10-06T02:34:51.347Z,12.30
2018-10-06T02:37:19.799Z,12.30
2018-10-06T02:39:48.338Z,12.30
2018-10-06T02:42:22.306Z,12.30
2018-10-06T02:44:50.738Z,12.30
2018-10-06T02:47:19.414Z,12.20
2018-10-06T02:49:48.074Z,12.20
2018-10-06T02:52:16.546Z,12.20
2018-10-06T02:54:45.135Z,12.30
2018-10-06T02:57:13.614Z,12.20
2018-10-06T02:59:42.031Z,12.20
2018-10-06T03:02:10.536Z,12.20
2018-10-06T03:04:39.024Z,12.20
2018-10-06T03:07:07.513Z,12.20
2018-10-06T03:09:35.916Z,12.10
2018-10-06T03:12:04.508Z,12.10
2018-10-06T03:14:33.031Z,12.10
2018-10-06T03:17:01.521Z,12.10
2018-10-06T03:19:30.057Z,12.10
2018-10-06T03:21:58.573Z,12.10
2018-10-06T03:24:27.080Z,12.00
2018-10-06T03:26:55.680Z,12.00
2018-10-06T03:29:24.216Z,12.00
2018-10-06T03:31:52.770Z,12.00
2018-10-06T03:34:21.266Z,12.00
2018-10-06T03:36:49.856Z,12.00
2018-10-06T03:39:18.431Z,12.00
2018-10-06T03:41:46.962Z,11.90
2018-10-06T03:44:15.570Z,11.90
2018-10-06T03:46:44.148Z,11.90
2018-10-06T03:49:12.636Z,11.90
2018-10-06T03:51:41.180Z,11.90
2018-10-06T03:54:11.440Z,11.90
2018-10-06T03:56:41.638Z,11.80
2018-10-06T03:59:10.229Z,11.80
2018-10-06T04:01:44.746Z,11.80
2018-10-06T04:04:13.402Z,11.80
2018-10-06T04:06:41.971Z,11.80
2018-10-06T04:09:10.535Z,11.80
2018-10-06T04:11:39.085Z,11.70
2018-10-06T04:14:07.752Z,11.70
2018-10-06T04:16:36.205Z,11.70
2018-10-06T04:19:04.721Z,11.70
2018-10-06T04:21:38.580Z,11.70
2018-10-06T04:24:07.040Z,11.70
2018-10-06T04:26:35.481Z,11.60
2018-10-06T04:29:04.000Z,11.60
2018-10-06T04:31:32.570Z,11.60
2018-10-06T04:34:01.281Z,11.60
2018-10-06T04:36:29.796Z,11.60
2018-10-06T04:38:58.296Z,11.50
2018-10-06T04:41:27.230Z,11.50
2018-10-06T04:43:55.764Z,11.60
2018-10-06T04:46:24.263Z,11.60
2018-10-06T04:48:52.713Z,11.50
2018-10-06T04:51:21.109Z,11.50
2018-10-06T04:53:49.673Z,11.50
2018-10-06T04:56:18.128Z,11.50
2018-10-06T04:58:46.582Z,11.50
2018-10-06T05:01:14.984Z,11.50
2018-10-06T05:03:43.683Z,11.60
2018-10-06T05:06:13.252Z,11.60
2018-10-06T05:08:41.762Z,11.60
2018-10-06T05:11:10.252Z,11.60
2018-10-06T05:13:38.774Z,11.60
2018-10-06T05:16:07.308Z,11.50
2018-10-06T05:18:35.907Z,11.50
2018-10-06T05:21:04.521Z,11.50
2018-10-06T05:23:32.971Z,11.50
2018-10-06T05:26:01.358Z,11.60
2018-10-06T05:28:30.166Z,11.60
2018-10-06T05:30:58.753Z,11.60
2018-10-06T05:33:27.241Z,11.60
2018-10-06T05:35:55.755Z,11.60
2018-10-06T05:38:24.554Z,11.60
2018-10-06T05:40:53.028Z,11.60
2018-10-06T05:43:21.603Z,11.60
2018-10-06T05:45:50.281Z,11.60
2018-10-06T05:48:18.840Z,11.60
2018-10-06T05:50:47.316Z,11.70
2018-10-06T05:53:15.793Z,11.60
2018-10-06T05:55:44.334Z,11.60
2018-10-06T05:58:12.869Z,11.70
2018-10-06T06:00:41.338Z,11.60
2018-10-06T06:03:09.949Z,11.70
2018-10-06T06:05:38.649Z,11.70
2018-10-06T06:08:07.079Z,11.70
2018-10-06T06:10:35.650Z,11.80
2018-10-06T06:13:04.153Z,11.80
2018-10-06T06:15:32.656Z,11.80
2018-10-06T06:18:01.111Z,11.80
2018-10-06T06:20:29.688Z,11.90
2018-10-06T06:22:58.260Z,11.90
2018-10-06T06:25:26.668Z,11.90
2018-10-06T06:27:55.211Z,11.90
2018-10-06T06:30:23.657Z,11.90
2018-10-06T06:32:52.203Z,12.00
2018-10-06T06:35:20.720Z,12.00
2018-10-06T06:37:49.182Z,12.00
2018-10-06T06:40:17.795Z,12.10
2018-10-06T06:42:46.441Z,12.10
2018-10-06T06:45:14.896Z,12.10
2018-10-06T06:47:43.302Z,12.10
2018-10-06T06:50:14.321Z,12.20
2018-10-06T06:52:43.154Z,12.20
2018-10-06T06:55:11.626Z,12.20
2018-10-06T06:57:40.826Z,12.20
2018-10-06T07:00:09.281Z,12.20
2018-10-06T07:02:37.845Z,12.30
2018-10-06T07:05:06.586Z,12.40
2018-10-06T07:07:35.116Z,12.40
2018-10-06T07:10:03.702Z,12.50
2018-10-06T07:12:32.208Z,12.50
2018-10-06T07:15:00.693Z,12.60
2018-10-06T07:17:29.286Z,12.60
2018-10-06T07:19:57.758Z,12.70
2018-10-06T07:22:26.379Z,12.80
2018-10-06T07:24:55.012Z,12.80
2018-10-06T07:27:23.673Z,12.80
2018-10-06T07:29:52.186Z,12.90
2018-10-06T07:32:20.769Z,12.90
2018-10-06T07:34:49.295Z,12.90
2018-10-06T07:37:19.684Z,13.00
2018-10-06T07:39:48.416Z,13.10
2018-10-06T07:42:16.900Z,13.20
2018-10-06T07:44:45.487Z,13.20
2018-10-06T07:47:19.074Z,13.30
2018-10-06T07:49:47.668Z,13.40
2018-10-06T07:52:16.136Z,13.40
2018-10-06T07:54:44.692Z,13.40
2018-10-06T07:57:13.267Z,13.50
2018-10-06T07:59:41.832Z,13.50
2018-10-06T08:02:10.334Z,13.60
2018-10-06T08:04:38.738Z,13.70
2018-10-06T08:07:07.235Z,13.90
2018-10-06T08:09:35.771Z,14.10
2018-10-06T08:12:04.172Z,14.20
2018-10-06T08:14:32.675Z,14.20
2018-10-06T08:17:01.333Z,14.30
2018-10-06T08:19:29.776Z,14.50
2018-10-06T08:21:58.260Z,14.60
2018-10-06T08:24:26.698Z,14.70
2018-10-06T08:26:55.202Z,14.70
2018-10-06T08:29:23.724Z,14.90
2018-10-06T08:31:52.177Z,14.90
2018-10-06T08:34:20.733Z,15.10
2018-10-06T08:36:49.141Z,15.10
2018-10-06T08:39:17.546Z,15.20
2018-10-06T08:41:46.036Z,15.20
2018-10-06T08:44:14.591Z,15.30
2018-10-06T08:46:43.043Z,15.30
2018-10-06T08:49:11.425Z,15.30
2018-10-06T08:51:40.013Z,15.30
2018-10-06T08:54:08.573Z,15.40
2018-10-06T08:56:38.648Z,15.50
2018-10-06T08:59:07.198Z,15.50
2018-10-06T09:01:35.756Z,15.50
2018-10-06T09:04:04.333Z,15.60
2018-10-06T09:06:36.030Z,15.60
2018-10-06T09:09:05.840Z,15.70
2018-10-06T09:11:34.488Z,15.70
2018-10-06T09:14:02.996Z,15.80
2018-10-06T09:16:31.524Z,15.90
2018-10-06T09:19:00.284Z,15.90
2018-10-06T09:21:28.961Z,15.90
2018-10-06T09:23:57.528Z,16.00
2018-10-06T09:26:26.013Z,16.10
2018-10-06T09:28:54.554Z,16.20
2018-10-06T09:31:23.136Z,16.20
2018-10-06T09:33:51.654Z,16.30
2018-10-06T09:36:20.198Z,16.30
2018-10-06T09:38:48.902Z,16.40
2018-10-06T09:41:17.417Z,16.40
2018-10-06T09:43:47.386Z,16.50
2018-10-06T09:46:16.008Z,16.70
2018-10-06T09:48:45.623Z,16.80
2018-10-06T09:51:14.584Z,16.90
2018-10-06T09:53:43.240Z,17.00
2018-10-06T09:56:11.649Z,17.20
2018-10-06T09:58:40.153Z,17.30
2018-10-06T10:01:14.313Z,17.40
2018-10-06T10:03:48.108Z,17.50
2018-10-06T10:06:17.204Z,17.60
2018-10-06T10:08:45.717Z,17.70
2018-10-06T10:13:50.832Z,17.90
2018-10-06T10:16:19.330Z,17.90
2018-10-06T10:18:47.860Z,18.00
2018-10-06T10:21:16.476Z,18.10
2018-10-06T10:23:45.052Z,18.20
2018-10-06T10:26:13.807Z,18.30
2018-10-06T10:28:42.533Z,18.40
2018-10-06T10:31:14.323Z,18.50
2018-10-06T10:33:44.642Z,18.50
2018-10-06T10:36:13.342Z,18.60
2018-10-06T10:38:41.922Z,18.70
2018-10-06T10:41:10.520Z,18.90
2018-10-06T10:43:39.229Z,18.90
2018-10-06T10:46:07.819Z,19.00
2018-10-06T10:48:36.458Z,19.10
2018-10-06T10:51:04.984Z,19.20
2018-10-06T10:53:33.481Z,19.30
2018-10-06T10:56:02.661Z,19.40
2018-10-06T10:58:31.264Z,19.40
2018-10-06T11:00:59.911Z,19.50
2018-10-06T11:03:28.402Z,19.60
2018-10-06T11:05:57.107Z,19.60
2018-10-06T11:08:31.343Z,19.70
2018-10-06T11:10:59.857Z,19.80
2018-10-06T11:13:28.389Z,19.90
2018-10-06T11:15:57.109Z,20.00
2018-10-06T11:18:25.804Z,20.00
2018-10-06T11:20:54.396Z,20.10
2018-10-06T11:23:22.853Z,20.20
2018-10-06T11:25:51.347Z,20.40
2018-10-06T11:28:19.933Z,20.40
2018-10-06T11:30:48.529Z,20.50
2018-10-06T11:33:17.208Z,20.60
2018-10-06T11:35:45.758Z,20.70
2018-10-06T11:38:14.378Z,20.80
2018-10-06T11:40:42.865Z,20.90
2018-10-06T11:43:11.366Z,21.00
2018-10-06T11:45:40.017Z,21.10
2018-10-06T11:48:08.614Z,21.20
2018-10-06T11:50:37.085Z,21.30
2018-10-06T11:53:05.646Z,21.40
2018-10-06T11:55:34.150Z,21.50
2018-10-06T11:58:03.991Z,21.50
2018-10-06T12:00:32.605Z,21.60
2018-10-06T12:03:01.125Z,21.60
2018-10-06T12:05:29.676Z,21.60
2018-10-06T12:08:01.722Z,21.60
2018-10-06T12:10:30.331Z,21.70
2018-10-06T12:12:58.846Z,21.80
2018-10-06T12:15:27.358Z,21.90
2018-10-06T12:17:56.966Z,21.90
2018-10-06T12:20:25.568Z,22.10
2018-10-06T12:22:54.033Z,22.10
2018-10-06T12:25:22.716Z,22.20
2018-10-06T12:27:51.556Z,22.30
2018-10-06T12:30:20.157Z,22.20
2018-10-06T12:32:48.935Z,22.20
2018-10-06T12:35:17.568Z,22.20
2018-10-06T12:37:46.185Z,22.20
2018-10-06T12:40:14.774Z,22.00
2018-10-06T12:42:43.245Z,22.00
2018-10-06T12:45:11.740Z,22.10
2018-10-06T12:47:41.242Z,22.10
2018-10-06T12:50:10.049Z,22.20
2018-10-06T12:52:38.501Z,22.20
2018-10-06T12:55:07.001Z,22.30
2018-10-06T12:57:35.634Z,22.30
2018-10-06T13:00:04.189Z,22.40
2018-10-06T13:02:32.733Z,22.50
2018-10-06T13:05:01.272Z,22.60
2018-10-06T13:07:29.751Z,22.60
2018-10-06T13:09:58.396Z,22.70
2018-10-06T13:12:27.171Z,22.80
2018-10-06T13:14:55.727Z,22.70
2018-10-06T13:17:24.294Z,22.60
2018-10-06T13:19:52.801Z,22.70
2018-10-06T13:22:21.330Z,22.70
2018-10-06T13:24:49.893Z,22.80
2018-10-06T13:27:18.478Z,22.90
2018-10-06T13:29:46.928Z,22.80
2018-10-06T13:32:15.442Z,22.80
2018-10-06T13:34:44.067Z,22.80
2018-10-06T13:37:12.612Z,22.90
2018-10-06T13:39:41.101Z,22.90
2018-10-06T13:42:09.593Z,22.90
2018-10-06T13:44:38.236Z,22.90
2018-10-06T13:47:06.717Z,23.00
2018-10-06T13:49:35.193Z,22.90
2018-10-06T13:52:03.618Z,22.90
2018-10-06T13:54:32.192Z,22.90
2018-10-06T13:57:00.664Z,22.90
2018-10-06T13:59:29.228Z,22.80
2018-10-06T14:01:57.897Z,22.80
2018-10-06T14:04:26.398Z,22.70
2018-10-06T14:06:54.993Z,22.70
2018-10-06T14:09:23.603Z,22.60
2018-10-06T14:11:52.061Z,22.60
2018-10-06T14:14:20.522Z,22.60
2018-10-06T14:16:49.235Z,22.60
2018-10-06T14:19:17.912Z,22.50
2018-10-06T14:21:46.552Z,22.50
2018-10-06T14:24:15.267Z,22.50
2018-10-06T14:26:43.746Z,22.40
2018-10-06T14:29:12.150Z,22.40
2018-10-06T14:31:40.704Z,22.50
2018-10-06T14:34:09.978Z,22.40
2018-10-06T14:36:38.541Z,22.40
2018-10-06T14:39:08.712Z,22.40
2018-10-06T14:41:37.339Z,22.40
2018-10-06T14:44:05.836Z,22.30
2018-10-06T14:46:34.398Z,22.30
2018-10-06T14:49:02.942Z,22.30
2018-10-06T14:51:31.475Z,22.30
2018-10-06T14:54:00.045Z,22.20
2018-10-06T14:56:28.900Z,22.20
2018-10-06T14:58:58.345Z,22.20
2018-10-06T15:01:27.005Z,22.10
2018-10-06T15:03:55.581Z,22.10
2018-10-06T15:06:24.099Z,22.10
2018-10-06T15:08:52.686Z,22.10
2018-10-06T15:11:21.178Z,22.10
2018-10-06T15:13:49.712Z,22.10
2018-10-06T15:16:18.269Z,22.10
2018-10-06T15:18:47.219Z,22.10
2018-10-06T15:21:15.769Z,22.10
2018-10-06T15:23:44.293Z,22.00
2018-10-06T15:26:12.908Z,22.00
2018-10-06T15:28:41.658Z,22.00
2018-10-06T15:31:10.220Z,22.10
2018-10-06T15:33:38.917Z,22.00
2018-10-06T15:36:07.669Z,22.00
2018-10-06T15:38:36.161Z,22.00
2018-10-06T15:41:04.697Z,22.00
2018-10-06T15:43:33.190Z,22.00
2018-10-06T15:46:01.714Z,21.90
2018-10-06T15:48:30.188Z,21.90
2018-10-06T15:50:58.850Z,21.90
2018-10-06T15:53:27.257Z,21.80
2018-10-06T15:55:55.838Z,21.80
2018-10-06T15:58:24.370Z,21.80
2018-10-06T16:00:52.982Z,21.80
2018-10-06T16:03:21.515Z,21.70
2018-10-06T16:05:50.142Z,21.70
2018-10-06T16:08:18.708Z,21.70
2018-10-06T16:10:47.266Z,21.60
2018-10-06T16:13:15.774Z,21.60
2018-10-06T16:15:44.346Z,21.50
2018-10-06T16:18:14.248Z,21.50
2018-10-06T16:20:42.766Z,21.50
2018-10-06T16:23:11.478Z,21.50
2018-10-06T16:25:40.046Z,21.40
2018-10-06T16:28:08.696Z,21.40
2018-10-06T16:30:37.161Z,21.30
2018-10-06T16:33:06.103Z,21.30
2018-10-06T16:35:34.555Z,21.30
2018-10-06T16:38:03.114Z,21.20
2018-10-06T16:40:31.647Z,21.20
2018-10-06T16:43:00.314Z,21.20
2018-10-06T16:45:32.460Z,21.10
2018-10-06T16:48:01.157Z,21.10
2018-10-06T16:50:29.639Z,21.00
2018-10-06T16:52:58.180Z,20.90
2018-10-06T16:55:26.795Z,20.90
2018-10-06T16:57:56.195Z,20.80
2018-10-06T17:00:25.085Z,20.70
2018-10-06T17:02:53.419Z,20.60
2018-10-06T17:05:22.753Z,20.50
2018-10-06T17:07:51.422Z,20.40
2018-10-06T17:10:19.948Z,20.40
2018-10-06T17:12:48.645Z,20.30
2018-10-06T17:15:17.156Z,20.30
2018-10-06T17:17:45.886Z,20.30
2018-10-06T17:20:14.447Z,20.20
2018-10-06T17:22:43.001Z,20.20
2018-10-06T17:25:11.740Z,20.10
2018-10-06T17:27:40.247Z,20.10
2018-10-06T17:30:08.823Z,20.10
2018-10-06T17:32:37.327Z,20.00
2018-10-06T17:35:05.826Z,20.00
2018-10-06T17:37:34.283Z,20.00
2018-10-06T17:40:02.730Z,20.00
2018-10-06T17:42:38.167Z,20.00
2018-10-06T17:48:05.998Z,19.90
2018-10-06T17:50:34.631Z,19.90
2018-10-06T17:53:03.155Z,19.90
2018-10-06T17:55:43.339Z,19.90
2018-10-06T17:58:11.930Z,19.90
2018-10-06T18:00:40.573Z,19.90
2018-10-06T18:03:09.140Z,19.90
2018-10-06T18:05:38.173Z,19.90
2018-10-06T18:08:06.860Z,19.80
2018-10-06T18:10:35.466Z,19.80
2018-10-06T18:13:03.933Z,19.80
2018-10-06T18:15:32.377Z,19.80
2018-10-06T18:18:01.062Z,19.70
2018-10-06T18:20:29.741Z,19.70
2018-10-06T18:22:58.108Z,19.70
2018-10-06T18:25:26.576Z,19.60
2018-10-06T18:27:55.189Z,19.60
2018-10-06T18:30:23.717Z,19.50
2018-10-06T18:32:53.418Z,19.50
2018-10-06T18:35:21.944Z,19.40
2018-10-06T18:37:50.344Z,19.40
2018-10-06T18:40:18.876Z,19.30
2018-10-06T18:42:47.358Z,19.30
2018-10-06T18:45:16.073Z,19.20
2018-10-06T18:47:44.619Z,19.10
2018-10-06T18:50:13.263Z,19.10
2018-10-06T18:52:41.872Z,19.10
2018-10-06T18:55:10.325Z,19.00
2018-10-06T18:57:38.896Z,19.00
2018-10-06T19:00:07.958Z,19.00
2018-10-06T19:02:36.550Z,18.90
2018-10-06T19:05:05.199Z,18.90
2018-10-06T19:07:33.766Z,18.80
2018-10-06T19:10:02.266Z,18.70
2018-10-06T19:12:38.233Z,18.70
2018-10-06T19:15:12.072Z,18.70
2018-10-06T19:17:46.236Z,18.70
2018-10-06T19:20:15.726Z,18.70
2018-10-06T19:22:45.113Z,18.70
2018-10-06T19:25:14.018Z,18.60
2018-10-06T19:27:44.768Z,18.50
2018-10-06T19:30:13.502Z,18.50
2018-10-06T19:32:46.066Z,18.40
2018-10-06T19:35:15.448Z,18.40
2018-10-06T19:37:45.132Z,18.30
2018-10-06T19:40:15.272Z,18.30
2018-10-06T19:42:45.577Z,18.30
2018-10-06T19:45:14.642Z,18.20
2018-10-06T19:47:46.369Z,18.20
2018-10-06T19:50:15.232Z,18.20
2018-10-06T19:52:44.746Z,18.20
2018-10-06T19:55:14.920Z,18.10
2018-10-06T19:57:45.678Z,18.10
2018-10-06T20:00:15.903Z,18.10
2018-10-06T20:02:45.930Z,18.00
2018-10-06T20:05:15.161Z,18.00
2018-10-06T20:07:44.897Z,17.90
2018-10-06T20:10:14.875Z,17.90
2018-10-06T20:12:44.029Z,17.90
2018-10-06T20:15:14.363Z,17.90
2018-10-06T20:17:44.666Z,17.90
2018-10-06T20:20:15.365Z,17.80
2018-10-06T20:22:55.061Z,17.80
2018-10-06T20:25:24.800Z,17.80
2018-10-06T20:27:54.724Z,17.80
2018-10-06T20:30:24.490Z,17.70
2018-10-06T20:47:12.597Z,17.70
2018-10-06T20:49:43.765Z,17.60
2018-10-06T20:52:13.571Z,17.50
2018-10-06T20:54:42.377Z,17.50
2018-10-06T20:57:10.905Z,17.50
2018-10-06T20:59:40.051Z,17.50
2018-10-06T21:02:08.615Z,17.50
2018-10-06T21:04:37.485Z,17.50
2018-10-06T21:07:06.163Z,17.50
2018-10-06T21:09:34.881Z,17.50
2018-10-06T21:12:03.394Z,17.40
2018-10-06T21:14:32.050Z,17.40
2018-10-06T21:17:00.693Z,17.40
2018-10-06T21:19:29.332Z,17.40
2018-10-06T21:21:57.966Z,17.40
2018-10-06T21:24:26.430Z,17.40
2018-10-06T21:26:55.396Z,17.40
2018-10-06T21:29:24.827Z,17.40
2018-10-06T21:31:53.536Z,17.40
2018-10-06T21:34:22.186Z,17.40
2018-10-06T21:36:50.913Z,17.40
2018-10-06T21:39:19.834Z,17.40
2018-10-06T21:41:49.473Z,17.40
2018-10-06T21:44:18.133Z,17.40
2018-10-06T21:46:47.181Z,17.30
2018-10-06T21:49:17.421Z,17.30
2018-10-06T21:51:52.943Z,17.30
2018-10-06T21:54:21.382Z,17.30
2018-10-06T21:56:49.838Z,17.30
2018-10-06T21:59:18.453Z,17.30
2018-10-06T22:01:46.976Z,17.30
2018-10-06T22:04:15.490Z,17.30
2018-10-06T22:06:44.985Z,17.30
2018-10-06T22:09:13.480Z,17.30
2018-10-06T22:11:42.051Z,17.20
2018-10-06T22:14:10.740Z,17.20
2018-10-06T22:16:45.267Z,17.10
2018-10-06T22:19:13.828Z,17.10
2018-10-06T22:21:42.596Z,17.10
2018-10-06T22:24:11.152Z,17.10
2018-10-06T22:26:39.637Z,17.00
2018-10-06T22:29:08.405Z,17.00
2018-10-06T22:31:36.955Z,16.90
2018-10-06T22:34:05.513Z,16.90
2018-10-06T22:36:34.122Z,16.80
2018-10-06T22:39:02.774Z,16.80
2018-10-06T22:41:31.405Z,16.70
2018-10-06T22:44:00.059Z,16.70
2018-10-06T22:46:28.965Z,16.70
2018-10-06T22:48:57.668Z,16.60
2018-10-06T22:51:26.517Z,16.60
2018-10-06T22:53:55.110Z,16.50
2018-10-06T22:56:23.856Z,16.50
2018-10-06T22:58:52.518Z,16.50
2018-10-06T23:01:21.106Z,16.50
2018-10-06T23:03:49.793Z,16.50
2018-10-06T23:06:18.338Z,16.40
2018-10-06T23:08:46.845Z,16.30
2018-10-06T23:11:15.374Z,16.30
2018-10-06T23:13:43.850Z,16.20
2018-10-06T23:16:12.586Z,16.20
2018-10-06T23:18:45.541Z,16.10
2018-10-06T23:21:14.064Z,16.00
2018-10-06T23:23:42.597Z,16.00
2018-10-06T23:26:12.101Z,15.90
2018-10-06T23:28:40.786Z,15.90
2018-10-06T23:31:14.781Z,15.80
2018-10-06T23:33:48.889Z,15.80
2018-10-06T23:36:20.842Z,15.70
2018-10-06T23:38:49.381Z,15.60
2018-10-06T23:41:18.254Z,15.60
2018-10-06T23:43:46.846Z,15.60
2018-10-06T23:46:15.424Z,15.50
2018-10-06T23:48:43.979Z,15.30
2018-10-06T23:51:12.597Z,15.20
2018-10-06T23:53:41.406Z,15.20
2018-10-06T23:56:10.168Z,15.10
2018-10-06T23:58:38.791Z,15.10
